createdAt,value
2017-10-31T00:02:11.323Z,8.90
2017-10-31T00:04:40.984Z,8.77
2017-10-31T00:07:09.735Z,9.55
2017-10-31T00:09:38.479Z,7.65
2017-10-31T00:12:07.235Z,7.60
2017-10-31T00:14:35.967Z,8.65
2017-10-31T00:17:04.718Z,9.48
2017-10-31T00:19:33.458Z,7.80
2017-10-31T00:22:02.991Z,8.25
2017-10-31T00:24:31.727Z,7.97
2017-10-31T00:27:00.557Z,8.02
2017-10-31T00:29:29.313Z,8.82
2017-10-31T00:31:58.256Z,7.75
2017-10-31T00:34:27.012Z,9.43
2017-10-31T00:36:56.588Z,8.27
2017-10-31T00:39:25.344Z,7.50
2017-10-31T00:41:54.072Z,7.30
2017-10-31T00:44:22.844Z,7.22
2017-10-31T00:46:51.577Z,8.20
2017-10-31T00:49:21.112Z,7.95
2017-10-31T00:51:49.925Z,7.35
2017-10-31T00:54:18.688Z,7.62
2017-10-31T00:56:47.433Z,7.60
2017-10-31T00:59:16.177Z,7.40
2017-10-31T01:01:44.904Z,7.30
2017-10-31T01:04:13.657Z,7.03
2017-10-31T01:06:42.477Z,8.10
2017-10-31T01:09:11.236Z,8.07
2017-10-31T01:11:40.224Z,7.87
2017-10-31T01:14:08.956Z,7.10
2017-10-31T01:16:37.704Z,6.72
2017-10-31T01:19:06.539Z,6.45
2017-10-31T01:21:35.296Z,7.28
2017-10-31T01:24:04.020Z,6.82
2017-10-31T01:26:32.735Z,7.00
2017-10-31T01:29:02.339Z,7.10
2017-10-31T01:31:31.847Z,6.40
2017-10-31T01:34:01.343Z,7.45
2017-10-31T01:36:30.870Z,7.68
2017-10-31T01:38:59.599Z,7.70
2017-10-31T01:41:28.376Z,7.55
2017-10-31T01:43:57.174Z,6.95
2017-10-31T01:46:26.174Z,7.32
2017-10-31T01:48:55.025Z,7.20
2017-10-31T01:51:24.166Z,6.45
2017-10-31T01:53:52.932Z,7.10
2017-10-31T01:56:21.659Z,7.65
2017-10-31T01:58:50.074Z,7.68
2017-10-31T02:01:19.668Z,6.80
2017-10-31T02:03:49.282Z,7.95
2017-10-31T02:06:18.775Z,7.43
2017-10-31T02:08:47.512Z,7.55
2017-10-31T02:11:16.272Z,7.75
2017-10-31T02:13:45.758Z,7.43
2017-10-31T02:16:15.308Z,8.07
2017-10-31T02:18:44.039Z,8.77
2017-10-31T02:21:12.095Z,7.93
2017-10-31T02:23:40.528Z,7.87
2017-10-31T02:26:09.695Z,7.35
2017-10-31T02:28:37.745Z,7.43
2017-10-31T02:31:06.187Z,7.90
2017-10-31T02:33:34.570Z,8.63
2017-10-31T02:36:02.632Z,8.10
2017-10-31T02:38:43.259Z,8.15
2017-10-31T02:41:11.327Z,7.00
2017-10-31T02:43:39.492Z,8.00
2017-10-31T02:46:07.886Z,8.20
2017-10-31T02:48:36.009Z,7.85
2017-10-31T02:51:04.836Z,7.57
2017-10-31T02:53:33.476Z,6.80
2017-10-31T02:56:02.655Z,8.55
2017-10-31T02:58:31.055Z,7.70
2017-10-31T03:00:59.889Z,7.43
2017-10-31T03:03:28.607Z,7.10
2017-10-31T03:05:57.024Z,6.95
2017-10-31T03:08:25.423Z,7.93
2017-10-31T03:10:53.821Z,7.72
2017-10-31T03:13:21.864Z,7.60
2017-10-31T03:15:50.252Z,7.40
2017-10-31T03:18:18.304Z,8.15
2017-10-31T03:20:47.290Z,7.75
2017-10-31T03:23:16.087Z,8.25
2017-10-31T03:25:45.607Z,8.27
2017-10-31T03:28:13.816Z,6.97
2017-10-31T03:30:41.863Z,8.10
2017-10-31T03:33:10.622Z,7.62
2017-10-31T03:35:38.650Z,8.38
2017-10-31T03:38:06.716Z,7.55
2017-10-31T03:40:34.751Z,6.75
2017-10-31T03:43:03.912Z,6.68
2017-10-31T03:45:31.948Z,7.85
2017-10-31T03:47:59.996Z,7.80
2017-10-31T03:50:29.141Z,7.53
2017-10-31T03:52:57.367Z,7.50
2017-10-31T03:55:26.193Z,7.85
2017-10-31T03:57:54.244Z,7.20
2017-10-31T04:00:22.293Z,8.45
2017-10-31T04:02:51.288Z,7.50
2017-10-31T04:05:20.179Z,6.87
2017-10-31T04:07:49.028Z,6.85
2017-10-31T04:10:17.103Z,7.20
2017-10-31T04:12:45.483Z,7.60
2017-10-31T04:15:13.520Z,6.65
2017-10-31T04:17:42.285Z,7.65
2017-10-31T04:20:11.791Z,7.32
2017-10-31T04:22:41.616Z,7.28
2017-10-31T04:25:11.111Z,6.97
2017-10-31T04:27:40.639Z,7.35
2017-10-31T04:30:09.382Z,6.85
2017-10-31T04:32:38.127Z,6.65
2017-10-31T04:35:06.895Z,6.10
2017-10-31T04:37:36.605Z,6.62
2017-10-31T04:40:06.188Z,8.10
2017-10-31T04:42:34.966Z,6.90
2017-10-31T04:45:03.708Z,6.70
2017-10-31T04:47:32.444Z,6.62
2017-10-31T04:50:00.884Z,7.20
2017-10-31T04:52:29.611Z,6.57
2017-10-31T04:54:58.379Z,7.53
2017-10-31T04:57:26.420Z,6.62
2017-10-31T04:59:54.859Z,7.40
2017-10-31T05:02:23.599Z,6.22
2017-10-31T05:04:52.364Z,6.97
2017-10-31T05:07:21.879Z,7.30
2017-10-31T05:09:51.588Z,6.53
2017-10-31T05:12:21.070Z,6.90
2017-10-31T05:14:49.799Z,5.55
2017-10-31T05:17:18.546Z,6.32
2017-10-31T05:19:47.439Z,6.53
2017-10-31T05:22:16.199Z,7.43
2017-10-31T05:24:44.930Z,5.80
2017-10-31T05:27:14.457Z,7.30
2017-10-31T05:29:43.330Z,6.57
2017-10-31T05:32:12.850Z,6.87
2017-10-31T05:34:42.511Z,7.22
2017-10-31T05:37:11.276Z,7.53
2017-10-31T05:39:40.012Z,6.75
2017-10-31T05:42:08.744Z,6.97
2017-10-31T05:44:37.500Z,7.80
2017-10-31T05:47:06.992Z,7.78
2017-10-31T05:49:35.740Z,7.35
2017-10-31T05:52:04.493Z,7.55
2017-10-31T05:54:34.044Z,6.53
2017-10-31T05:57:02.848Z,8.15
2017-10-31T05:59:31.603Z,7.20
2017-10-31T06:02:00.336Z,6.90
2017-10-31T06:04:29.212Z,6.93
2017-10-31T06:06:58.076Z,7.18
2017-10-31T06:09:26.844Z,7.00
2017-10-31T06:11:55.588Z,6.57
2017-10-31T06:14:24.315Z,6.90
2017-10-31T06:16:53.882Z,6.45
2017-10-31T06:19:22.614Z,6.80
2017-10-31T06:21:57.715Z,7.50
2017-10-31T06:24:31.908Z,6.62
2017-10-31T06:27:06.267Z,6.30
2017-10-31T06:29:49.736Z,6.95
2017-10-31T06:32:18.484Z,7.28
2017-10-31T06:34:47.034Z,6.78
2017-10-31T06:37:15.791Z,6.97
2017-10-31T06:39:45.299Z,7.28
2017-10-31T06:42:14.816Z,7.60
2017-10-31T06:44:43.789Z,6.62
2017-10-31T06:47:12.823Z,8.07
2017-10-31T06:49:41.567Z,6.20
2017-10-31T06:52:11.135Z,8.00
2017-10-31T06:54:39.896Z,6.78
2017-10-31T06:57:08.624Z,7.18
2017-10-31T06:59:38.184Z,7.55
2017-10-31T07:02:06.958Z,6.72
2017-10-31T07:04:36.602Z,6.40
2017-10-31T07:07:05.419Z,6.80
2017-10-31T07:09:34.171Z,7.00
2017-10-31T07:12:03.063Z,7.82
2017-10-31T07:14:31.802Z,7.07
2017-10-31T07:17:00.535Z,7.30
2017-10-31T07:19:29.275Z,7.50
2017-10-31T07:21:58.030Z,7.28
2017-10-31T07:24:26.762Z,7.70
2017-10-31T07:26:55.523Z,6.50
2017-10-31T07:29:24.334Z,7.12
2017-10-31T07:31:53.692Z,7.70
2017-10-31T07:34:23.362Z,8.73
2017-10-31T07:36:52.884Z,7.32
2017-10-31T07:39:22.398Z,8.82
2017-10-31T07:41:52.009Z,8.80
2017-10-31T07:44:20.880Z,8.05
2017-10-31T07:46:50.376Z,8.25
2017-10-31T07:49:19.135Z,8.98
2017-10-31T07:51:47.898Z,8.73
2017-10-31T07:54:16.650Z,9.00
2017-10-31T07:56:46.158Z,8.50
2017-10-31T07:59:15.677Z,9.25
2017-10-31T08:01:44.437Z,9.85
2017-10-31T08:04:13.990Z,10.40
2017-10-31T08:06:42.812Z,10.32
2017-10-31T08:09:11.555Z,10.57
2017-10-31T08:11:40.331Z,10.82
2017-10-31T08:14:09.848Z,11.02
2017-10-31T08:16:38.607Z,12.13
2017-10-31T08:19:08.155Z,11.65
2017-10-31T08:21:38.627Z,11.80
2017-10-31T08:24:07.508Z,12.90
2017-10-31T08:26:36.279Z,12.23
2017-10-31T08:29:04.433Z,13.07
2017-10-31T08:31:33.192Z,11.80
2017-10-31T08:34:01.938Z,12.73
2017-10-31T08:36:30.082Z,14.00
2017-10-31T08:38:58.188Z,11.87
2017-10-31T08:41:26.440Z,13.07
2017-10-31T08:43:54.911Z,13.23
2017-10-31T08:46:23.370Z,12.50
2017-10-31T08:48:51.856Z,14.67
2017-10-31T08:51:20.319Z,14.17
2017-10-31T08:53:49.336Z,15.30
2017-10-31T08:56:17.811Z,13.67
2017-10-31T08:58:46.329Z,15.60
2017-10-31T09:01:14.796Z,15.40
2017-10-31T09:03:43.378Z,15.30
2017-10-31T09:06:11.839Z,15.63
2017-10-31T09:08:40.324Z,15.30
2017-10-31T09:11:09.114Z,15.23
2017-10-31T09:13:37.604Z,13.80
2017-10-31T09:16:06.090Z,14.73
2017-10-31T09:18:34.591Z,13.87
2017-10-31T09:21:03.079Z,13.60
2017-10-31T09:23:31.556Z,15.03
2017-10-31T09:26:00.045Z,14.10
2017-10-31T09:28:28.524Z,13.60
2017-10-31T09:30:58.575Z,15.43
2017-10-31T09:33:27.108Z,15.07
2017-10-31T09:35:55.580Z,14.03
2017-10-31T09:38:23.746Z,14.07
2017-10-31T09:40:52.432Z,13.87
2017-10-31T09:43:21.339Z,14.60
2017-10-31T09:45:49.833Z,14.70
2017-10-31T09:48:18.404Z,16.70
2017-10-31T09:50:46.882Z,15.87
2017-10-31T09:53:15.378Z,15.37
2017-10-31T09:55:43.862Z,16.60
2017-10-31T09:58:12.000Z,16.07
2017-10-31T10:00:41.299Z,16.40
2017-10-31T10:03:10.539Z,16.17
2017-10-31T10:05:38.999Z,16.03
2017-10-31T10:08:08.272Z,16.00
2017-10-31T10:10:36.752Z,14.67
2017-10-31T10:13:05.249Z,15.50
2017-10-31T10:15:34.503Z,16.83
2017-10-31T10:18:02.970Z,16.00
2017-10-31T10:20:31.464Z,15.30
2017-10-31T10:23:00.954Z,15.43
2017-10-31T10:25:29.444Z,16.17
2017-10-31T10:27:57.911Z,16.00
2017-10-31T10:30:26.424Z,15.77
2017-10-31T10:32:54.903Z,15.10
2017-10-31T10:35:23.388Z,15.00
2017-10-31T10:37:51.885Z,15.10
2017-10-31T10:40:20.367Z,14.97
2017-10-31T10:42:48.836Z,15.47
2017-10-31T10:45:17.317Z,14.23
2017-10-31T10:47:45.810Z,14.13
2017-10-31T10:50:14.272Z,15.53
2017-10-31T10:52:42.769Z,15.10
2017-10-31T10:55:11.220Z,16.63
2017-10-31T10:57:39.699Z,15.03
2017-10-31T11:00:07.514Z,16.77
2017-10-31T11:02:35.416Z,16.53
2017-10-31T11:05:04.668Z,17.30
2017-10-31T11:07:33.256Z,13.47
2017-10-31T11:10:01.721Z,11.63
2017-10-31T11:12:30.107Z,11.93
2017-10-31T11:14:58.392Z,11.93
2017-10-31T11:17:26.856Z,11.60
2017-10-31T11:19:55.407Z,12.60
2017-10-31T11:22:23.992Z,12.93
2017-10-31T11:24:53.245Z,13.03
2017-10-31T11:27:21.727Z,13.00
2017-10-31T11:29:50.215Z,13.50
2017-10-31T11:32:18.708Z,14.53
2017-10-31T11:34:48.031Z,13.57
2017-10-31T11:37:15.815Z,13.30
2017-10-31T11:39:45.064Z,13.77
2017-10-31T11:42:13.622Z,11.97
2017-10-31T11:44:42.106Z,13.07
2017-10-31T11:47:10.597Z,13.60
2017-10-31T11:49:39.062Z,11.50
2017-10-31T11:52:07.591Z,12.00
2017-10-31T11:54:36.079Z,11.77
2017-10-31T11:57:04.575Z,10.33
2017-10-31T11:59:33.052Z,11.43
2017-10-31T12:02:03.183Z,12.17
2017-10-31T12:04:31.666Z,12.13
2017-10-31T12:07:00.179Z,10.93
2017-10-31T12:09:28.658Z,11.90
2017-10-31T12:11:57.138Z,12.00
2017-10-31T12:14:25.724Z,11.17
2017-10-31T12:16:54.204Z,11.37
2017-10-31T12:19:23.459Z,11.30
2017-10-31T12:21:51.948Z,13.07
2017-10-31T12:24:20.443Z,11.33
2017-10-31T12:26:48.915Z,13.10
2017-10-31T12:29:17.382Z,11.97
2017-10-31T12:31:45.859Z,13.20
2017-10-31T12:34:14.335Z,12.30
2017-10-31T12:36:42.844Z,13.60
2017-10-31T12:39:11.321Z,9.83
2017-10-31T12:41:39.827Z,9.50
2017-10-31T12:44:09.054Z,9.77
2017-10-31T12:46:37.524Z,8.97
2017-10-31T12:49:06.738Z,7.13
2017-10-31T12:51:35.226Z,7.83
2017-10-31T12:54:03.717Z,8.20
2017-10-31T12:56:31.849Z,8.20
2017-10-31T12:59:01.107Z,9.33
2017-10-31T13:01:30.493Z,9.60
2017-10-31T13:03:58.979Z,10.87
2017-10-31T13:06:27.436Z,9.90
2017-10-31T13:08:56.336Z,9.57
2017-10-31T13:11:24.820Z,8.67
2017-10-31T13:13:53.282Z,9.13
2017-10-31T13:16:22.526Z,9.47
2017-10-31T13:18:51.045Z,9.60
2017-10-31T13:21:19.536Z,9.57
2017-10-31T13:23:48.070Z,11.03
2017-10-31T13:26:16.913Z,9.87
2017-10-31T13:28:46.546Z,10.10
2017-10-31T13:31:16.198Z,10.47
2017-10-31T13:33:45.052Z,11.23
2017-10-31T13:36:13.996Z,11.70
2017-10-31T13:38:42.855Z,10.90
2017-10-31T13:41:11.691Z,11.47
2017-10-31T13:43:40.557Z,10.40
2017-10-31T13:46:09.116Z,10.90
2017-10-31T13:48:37.748Z,11.00
2017-10-31T13:51:07.370Z,10.67
2017-10-31T13:53:36.676Z,12.07
2017-10-31T13:56:05.989Z,11.30
2017-10-31T13:58:34.521Z,10.30
2017-10-31T14:01:03.398Z,10.93
2017-10-31T14:03:32.286Z,11.77
2017-10-31T14:06:01.135Z,12.30
2017-10-31T14:08:30.782Z,9.97
2017-10-31T14:10:59.650Z,10.47
2017-10-31T14:13:28.189Z,10.90
2017-10-31T14:15:56.727Z,10.70
2017-10-31T14:18:25.264Z,10.47
2017-10-31T14:20:53.886Z,12.00
2017-10-31T14:23:22.414Z,9.87
2017-10-31T14:25:50.937Z,12.07
2017-10-31T14:28:20.298Z,10.90
2017-10-31T14:30:48.868Z,9.43
2017-10-31T14:33:17.407Z,10.90
2017-10-31T14:35:46.712Z,11.30
2017-10-31T14:38:16.001Z,10.47
2017-10-31T14:40:44.509Z,10.70
2017-10-31T14:43:13.793Z,10.60
2017-10-31T14:45:42.290Z,11.67
2017-10-31T14:48:11.577Z,12.27
2017-10-31T14:50:40.105Z,10.73
2017-10-31T14:53:08.624Z,10.80
2017-10-31T14:55:37.139Z,11.70
2017-10-31T14:58:06.443Z,10.30
2017-10-31T15:00:35.728Z,9.90
2017-10-31T15:03:04.232Z,9.90
2017-10-31T15:05:33.665Z,10.70
2017-10-31T15:08:02.322Z,10.33
2017-10-31T15:10:30.840Z,9.87
2017-10-31T15:12:59.351Z,9.90
2017-10-31T15:15:27.850Z,9.67
2017-10-31T15:17:56.384Z,9.93
2017-10-31T15:20:24.889Z,10.00
2017-10-31T15:22:53.412Z,11.07
2017-10-31T15:25:22.680Z,10.80
2017-10-31T15:27:51.270Z,10.50
2017-10-31T15:30:19.794Z,11.03
2017-10-31T15:32:49.109Z,10.50
2017-10-31T15:35:17.688Z,10.57
2017-10-31T15:37:46.194Z,10.50
2017-10-31T15:40:14.719Z,10.83
2017-10-31T15:42:43.247Z,9.73
2017-10-31T15:45:11.763Z,11.30
2017-10-31T15:47:40.360Z,10.93
2017-10-31T15:50:08.882Z,9.40
2017-10-31T15:52:37.419Z,10.50
2017-10-31T15:55:05.944Z,10.17
2017-10-31T15:57:35.220Z,10.10
2017-10-31T16:00:03.420Z,10.20
2017-10-31T16:02:31.922Z,8.80
2017-10-31T16:05:00.559Z,9.87
2017-10-31T16:07:29.101Z,11.23
2017-10-31T16:09:57.628Z,10.07
2017-10-31T16:12:26.244Z,10.57
2017-10-31T16:14:55.549Z,9.93
2017-10-31T16:17:24.848Z,11.77
2017-10-31T16:19:54.195Z,11.67
2017-10-31T16:22:22.713Z,11.13
2017-10-31T16:24:51.249Z,12.10
2017-10-31T16:27:19.804Z,12.47
2017-10-31T16:29:49.090Z,12.80
2017-10-31T16:32:18.429Z,15.23
2017-10-31T16:34:46.948Z,16.10
2017-10-31T16:37:15.464Z,15.40
2017-10-31T16:39:44.787Z,15.03
2017-10-31T16:42:13.311Z,14.07
2017-10-31T16:44:41.852Z,11.43
2017-10-31T16:47:10.483Z,10.67
2017-10-31T16:49:39.058Z,10.90
2017-10-31T16:52:07.817Z,11.73
2017-10-31T16:54:36.355Z,11.93
2017-10-31T16:57:04.675Z,12.40
2017-10-31T16:59:33.214Z,11.63
2017-10-31T17:02:01.730Z,12.30
2017-10-31T17:04:30.284Z,11.90
2017-10-31T17:06:58.820Z,11.73
2017-10-31T17:09:27.368Z,12.20
2017-10-31T17:11:56.725Z,12.17
2017-10-31T17:14:25.231Z,11.33
2017-10-31T17:16:53.775Z,12.40
2017-10-31T17:19:22.278Z,11.83
2017-10-31T17:21:50.874Z,11.97
2017-10-31T17:24:19.389Z,11.40
2017-10-31T17:26:47.913Z,12.03
2017-10-31T17:29:16.552Z,10.60
2017-10-31T17:31:45.089Z,12.43
2017-10-31T17:34:13.613Z,13.47
2017-10-31T17:36:42.244Z,12.10
2017-10-31T17:39:10.791Z,13.03
2017-10-31T17:41:39.304Z,11.80
2017-10-31T17:44:07.867Z,11.23
2017-10-31T17:46:37.155Z,13.03
2017-10-31T17:49:05.686Z,12.50
2017-10-31T17:51:35.314Z,11.48
2017-10-31T17:54:03.492Z,10.57
2017-10-31T17:56:32.262Z,11.60
2017-10-31T17:59:01.843Z,13.45
2017-10-31T18:01:31.132Z,14.33
2017-10-31T18:04:01.263Z,12.63
2017-10-31T18:06:30.601Z,12.33
2017-10-31T18:08:59.128Z,12.23
2017-10-31T18:11:28.510Z,10.80
2017-10-31T18:13:57.387Z,12.20
2017-10-31T18:16:25.932Z,12.10
2017-10-31T18:18:54.724Z,13.68
2017-10-31T18:21:24.028Z,15.27
2017-10-31T18:23:52.801Z,14.25
2017-10-31T18:26:21.600Z,12.70
2017-10-31T18:28:50.981Z,13.03
2017-10-31T18:31:19.805Z,12.35
2017-10-31T18:33:49.382Z,12.20
2017-10-31T18:36:17.888Z,13.50
2017-10-31T18:38:46.473Z,12.70
2017-10-31T18:41:15.294Z,12.80
2017-10-31T18:43:44.105Z,12.30
2017-10-31T18:46:12.980Z,13.00
2017-10-31T18:48:41.774Z,13.05
2017-10-31T18:51:10.584Z,14.27
2017-10-31T18:53:39.396Z,15.20
2017-10-31T18:56:08.263Z,16.30
2017-10-31T18:58:37.068Z,14.50
2017-10-31T19:01:05.872Z,15.00
2017-10-31T19:03:34.813Z,15.15
2017-10-31T19:06:03.689Z,16.77
2017-10-31T19:08:33.263Z,18.08
2017-10-31T19:11:02.533Z,17.03
2017-10-31T19:13:30.719Z,18.00
2017-10-31T19:15:59.506Z,14.10
2017-10-31T19:18:28.910Z,14.50
2017-10-31T19:20:57.430Z,14.57
2017-10-31T19:23:26.241Z,13.98
2017-10-31T19:25:55.071Z,16.75
2017-10-31T19:28:23.830Z,15.45
2017-10-31T19:30:53.388Z,16.02
2017-10-31T19:33:21.911Z,15.87
2017-10-31T19:35:50.692Z,16.02
2017-10-31T19:38:19.518Z,15.90
2017-10-31T19:40:48.243Z,14.53
2017-10-31T19:43:17.120Z,16.40
2017-10-31T19:45:45.925Z,15.77
2017-10-31T19:48:14.735Z,18.73
2017-10-31T19:50:44.012Z,18.27
2017-10-31T19:53:12.509Z,17.33
2017-10-31T19:55:41.163Z,18.60
2017-10-31T19:58:09.681Z,18.20
2017-10-31T20:00:39.125Z,16.70
2017-10-31T20:03:07.625Z,17.87
2017-10-31T20:05:36.154Z,18.80
2017-10-31T20:08:05.413Z,19.03
2017-10-31T20:10:33.942Z,20.03
2017-10-31T20:13:03.213Z,20.80
2017-10-31T20:15:31.800Z,18.90
2017-10-31T20:18:00.347Z,17.17
2017-10-31T20:20:28.859Z,17.00
2017-10-31T20:22:57.413Z,16.90
2017-10-31T20:25:25.932Z,17.50
2017-10-31T20:27:54.529Z,16.97
2017-10-31T20:30:23.044Z,16.53
2017-10-31T20:32:51.581Z,15.80
2017-10-31T20:35:20.149Z,16.90
2017-10-31T20:37:48.927Z,16.70
2017-10-31T20:40:17.507Z,16.27
2017-10-31T20:42:46.020Z,16.83
2017-10-31T20:45:14.553Z,17.00
2017-10-31T20:47:43.208Z,16.90
2017-10-31T20:50:11.745Z,17.33
2017-10-31T20:52:40.329Z,15.17
2017-10-31T20:55:09.107Z,17.77
2017-10-31T20:57:37.830Z,15.83
2017-10-31T21:00:06.015Z,17.50
2017-10-31T21:02:34.528Z,18.10
2017-10-31T21:05:03.792Z,17.90
2017-10-31T21:07:32.318Z,17.73
2017-10-31T21:10:00.847Z,17.50
2017-10-31T21:12:29.360Z,18.63
2017-10-31T21:14:57.867Z,16.93
2017-10-31T21:17:27.273Z,17.83
2017-10-31T21:19:56.549Z,18.70
2017-10-31T21:22:25.057Z,17.40
2017-10-31T21:24:54.337Z,17.07
2017-10-31T21:27:22.921Z,18.00
2017-10-31T21:29:51.424Z,18.77
2017-10-31T21:32:19.941Z,17.13
2017-10-31T21:34:48.475Z,18.97
2017-10-31T21:37:17.248Z,16.70
2017-10-31T21:39:45.776Z,16.57
2017-10-31T21:42:14.291Z,18.30
2017-10-31T21:44:43.756Z,15.67
2017-10-31T21:47:13.037Z,17.80
2017-10-31T21:49:42.369Z,17.57
2017-10-31T21:52:10.892Z,17.17
2017-10-31T21:54:39.423Z,17.50
2017-10-31T21:57:07.985Z,18.47
2017-10-31T21:59:36.603Z,17.60
2017-10-31T22:02:05.871Z,18.70
2017-10-31T22:04:34.400Z,19.70
2017-10-31T22:07:02.893Z,19.13
2017-10-31T22:09:31.404Z,18.60
2017-10-31T22:11:59.924Z,17.00
2017-10-31T22:14:29.198Z,17.47
2017-10-31T22:16:57.776Z,17.00
2017-10-31T22:19:26.275Z,18.00
2017-10-31T22:21:55.555Z,16.80
2017-10-31T22:24:24.058Z,16.20
2017-10-31T22:26:52.579Z,15.87
2017-10-31T22:29:21.088Z,15.07
2017-10-31T22:31:49.766Z,17.10
2017-10-31T22:34:18.272Z,17.70
2017-10-31T22:36:46.800Z,17.73
2017-10-31T22:39:16.238Z,18.53
2017-10-31T22:41:44.731Z,17.33
2017-10-31T22:44:13.228Z,18.43
2017-10-31T22:46:41.735Z,17.20
2017-10-31T22:49:10.255Z,17.03
2017-10-31T22:51:38.936Z,16.33
2017-10-31T22:54:07.571Z,18.13
2017-10-31T22:56:36.079Z,16.50
2017-10-31T22:59:04.617Z,17.07
2017-10-31T23:01:33.128Z,16.53
2017-10-31T23:04:01.637Z,16.00
2017-10-31T23:06:30.917Z,17.23
2017-10-31T23:08:59.436Z,17.50
2017-10-31T23:11:27.947Z,16.97
2017-10-31T23:13:56.464Z,17.30
2017-10-31T23:16:24.985Z,18.00
2017-10-31T23:18:54.279Z,16.00
2017-10-31T23:21:23.540Z,16.50
2017-10-31T23:23:52.056Z,17.80
2017-10-31T23:26:21.348Z,16.10
2017-10-31T23:28:50.126Z,17.17
2017-10-31T23:31:18.637Z,16.80
2017-10-31T23:33:47.189Z,16.97
2017-10-31T23:36:15.739Z,17.23
2017-10-31T23:38:44.249Z,16.93
2017-10-31T23:41:12.767Z,17.33
2017-10-31T23:43:42.183Z,17.97
2017-10-31T23:46:10.714Z,16.57
2017-10-31T23:48:39.235Z,17.03
2017-10-31T23:51:08.528Z,17.00
2017-10-31T23:53:37.810Z,16.17
2017-10-31T23:56:06.415Z,17.67
2017-10-31T23:58:35.019Z,16.93
